Terminal Aerodrome Forecast
Issued by NWS Austin/San Antonio, TX

Home | Current Version | Previous Version | Text Only | Print | Product List | Glossary On
Versions: 1 2 3 4 5 6 7 8 9 10 11 12 13 14 15 16 17 18 19 20 21 22 23 24 25 26 27
000
FTUS44 KEWX 230700 AAB
TAFSAT
TAF AMD
KSAT 230736Z 2308/2412 17006KT P6SM SCT015
      TEMPO 2311/2315 BKN015
     FM231500 17010KT P6SM FEW040
     FM232100 15010KT P6SM FEW090
     FM240000 15015KT P6SM SKC
     FM240700 18006KT P6SM BKN015=

USA.gov is the U.S. government's official web portal to all federal, state and local government web resources and services.